Time;durP1;ratioP1;P1;durP2;ratioP2;P2;SDS_P1;SDS_P2;PMS_P1;PMS_P2;Temp;Humidity;BMP_temperature;BMP_pressure;BME280_temperature;BME280_humidity;BME280_pressure;Samples;Min_cycle;Max_cycle;Signal;HPM_P1;HPM_P2
2023/08/21 00:02:16;;;;;;;11.13;6.73;;;;;;;21.83;100.00;151503.47;4966028;28;20231;-57
2023/08/21 00:04:43;;;;;;;10.90;6.73;;;;;;;21.79;100.00;151493.44;4966177;28;20222;-56
2023/08/21 00:07:11;;;;;;;14.13;6.57;;;;;;;21.75;100.00;151484.66;4965811;28;20228;-56
2023/08/21 00:09:39;;;;;;;11.13;6.97;;;;;;;21.72;100.00;151477.16;4961792;28;20309;-56
2023/08/21 00:12:06;;;;;;;10.70;6.60;;;;;;;21.71;100.00;151473.38;4947231;28;20252;-56
2023/08/21 00:14:33;;;;;;;9.43;6.13;;;;;;;21.67;100.00;151465.84;4962099;28;20240;-57
2023/08/21 00:17:00;;;;;;;14.33;7.20;;;;;;;21.65;100.00;151459.63;4966025;28;20237;-56
2023/08/21 00:19:26;;;;;;;10.70;6.47;;;;;;;21.62;100.00;151452.03;4963242;28;20262;-55
2023/08/21 00:21:53;;;;;;;7.40;6.40;;;;;;;21.61;100.00;151450.75;4965271;28;20231;-57
2023/08/21 00:24:20;;;;;;;10.57;7.00;;;;;;;21.56;100.00;151438.22;4963271;28;20287;-56
2023/08/21 00:26:47;;;;;;;10.40;6.73;;;;;;;21.56;100.00;151437.00;4966513;28;20219;-54
2023/08/21 00:29:14;;;;;;;13.27;6.77;;;;;;;21.52;100.00;151428.19;4965226;28;20248;-57
2023/08/21 00:31:41;;;;;;;8.70;6.60;;;;;;;21.48;100.00;151419.44;4967583;28;20247;-56
2023/08/21 00:34:07;;;;;;;7.60;6.50;;;;;;;21.47;100.00;151415.66;4966325;28;20677;-56
2023/08/21 00:36:34;;;;;;;12.70;6.60;;;;;;;21.47;100.00;151416.94;4948530;28;20243;-56
2023/08/21 00:39:01;;;;;;;9.63;6.40;;;;;;;21.45;100.00;151411.91;4969340;28;20334;-56
2023/08/21 00:41:27;;;;;;;10.40;6.80;;;;;;;21.39;100.00;151398.09;4965221;28;20227;-56
2023/08/21 00:43:56;;;;;;;8.33;6.03;;;;;;;21.40;100.00;151399.38;4960190;28;20819;-55
2023/08/21 00:46:22;;;;;;;7.83;6.77;;;;;;;21.39;100.00;151396.88;4958259;28;20228;-56
2023/08/21 00:48:49;;;;;;;8.40;6.60;;;;;;;21.36;100.00;151389.34;4952087;28;20713;-54
2023/08/21 00:51:17;;;;;;;9.80;6.30;;;;;;;21.34;100.00;151384.34;4965890;28;20256;-53
2023/08/21 00:53:45;;;;;;;7.53;6.33;;;;;;;21.32;100.00;151380.56;4958067;28;20230;-56
2023/08/21 00:56:13;;;;;;;10.83;6.73;;;;;;;21.30;100.00;151375.53;4966524;28;20260;-56
2023/08/21 00:58:41;;;;;;;14.33;6.43;;;;;;;21.28;100.00;151370.53;4952371;28;20245;-57
2023/08/21 01:01:09;;;;;;;10.60;6.30;;;;;;;21.24;100.00;151360.50;4960125;28;20224;-54
2023/08/21 01:03:35;;;;;;;10.23;6.80;;;;;;;21.26;100.00;151364.28;4953210;28;20232;-55
2023/08/21 01:06:02;;;;;;;9.17;6.67;;;;;;;21.21;100.00;151354.25;4971308;28;20211;-55
2023/08/21 01:08:35;;;;;;;10.70;6.47;;;;;;;21.21;100.00;151354.25;4964029;28;20229;-56
2023/08/21 01:11:10;;;;;;;8.17;6.17;;;;;;;21.23;100.00;151358.00;4952715;28;20243;-53
2023/08/21 01:13:47;;;;;;;12.97;6.43;;;;;;;21.22;100.00;151356.75;4950164;28;20693;-55
2023/08/21 01:16:16;;;;;;;8.63;6.40;;;;;;;21.20;100.00;151350.50;4964156;28;20614;-56
2023/08/21 01:18:45;;;;;;;10.23;6.63;;;;;;;21.18;100.00;151346.72;4965631;28;20700;-54
2023/08/21 01:21:13;;;;;;;10.50;6.27;;;;;;;21.16;100.00;151341.72;4941311;28;20240;-56
2023/08/21 01:23:42;;;;;;;8.97;6.30;;;;;;;21.19;100.00;151349.25;4967536;28;20297;-54
2023/08/21 01:26:09;;;;;;;7.93;6.43;;;;;;;21.14;100.00;151335.47;4951898;28;20260;-55
2023/08/21 01:28:36;;;;;;;11.83;6.63;;;;;;;21.08;100.00;151322.94;4967283;28;20838;-55
2023/08/21 01:31:09;;;;;;;10.47;6.10;;;;;;;21.11;100.00;151327.94;4969152;28;20590;-56
2023/08/21 01:33:43;;;;;;;9.70;6.37;;;;;;;21.07;100.00;151320.44;4966345;28;20754;-56
2023/08/21 01:36:09;;;;;;;7.33;6.07;;;;;;;21.05;100.00;151315.41;4968819;28;20219;-55
2023/08/21 01:38:37;;;;;;;10.33;6.50;;;;;;;21.06;100.00;151317.94;4934793;28;20237;-55
2023/08/21 01:41:05;;;;;;;12.07;6.87;;;;;;;21.01;100.00;151304.09;4966904;28;20232;-56
2023/08/21 01:43:33;;;;;;;6.53;5.90;;;;;;;21.03;100.00;151309.13;4964111;28;20277;-55
2023/08/21 01:45:59;;;;;;;8.50;6.33;;;;;;;21.01;100.00;151304.09;4967777;28;20686;-56
2023/08/21 01:48:26;;;;;;;10.67;7.13;;;;;;;20.96;100.00;151292.84;4962929;28;20222;-53
2023/08/21 01:50:52;;;;;;;10.27;6.57;;;;;;;20.95;100.00;151290.34;4953367;28;20235;-55
2023/08/21 01:53:19;;;;;;;10.27;6.70;;;;;;;20.93;100.00;151286.56;4963027;28;20345;-55
2023/08/21 01:55:46;;;;;;;9.47;6.37;;;;;;;20.89;100.00;151275.31;4957609;28;20238;-54
2023/08/21 01:58:14;;;;;;;8.93;7.30;;;;;;;20.85;100.00;151266.50;4953459;28;20824;-55
2023/08/21 02:00:40;;;;;;;12.23;6.87;;;;;;;20.85;100.00;151266.50;4951460;28;20241;-52
2023/08/21 02:03:07;;;;;;;10.93;7.00;;;;;;;20.85;100.00;151266.50;4956270;28;20325;-55
2023/08/21 02:05:38;;;;;;;9.93;6.67;;;;;;;20.82;100.00;151259.00;4964451;28;20279;-56
2023/08/21 02:08:06;;;;;;;10.70;6.83;;;;;;;20.78;100.00;151250.25;4967163;28;20225;-53
2023/08/21 02:10:32;;;;;;;10.47;6.77;;;;;;;20.73;100.00;151236.38;4955968;28;20323;-55
2023/08/21 02:12:59;;;;;;;12.93;7.00;;;;;;;20.70;100.00;151228.88;4964415;28;20230;-54
2023/08/21 02:15:27;;;;;;;10.00;6.77;;;;;;;20.70;100.00;151228.88;4962551;28;20216;-54
2023/08/21 02:17:54;;;;;;;10.43;7.17;;;;;;;20.70;100.00;151228.88;4965283;28;20228;-54
2023/08/21 02:20:21;;;;;;;11.97;6.83;;;;;;;20.68;100.00;151225.13;4962051;28;20226;-53
2023/08/21 02:22:47;;;;;;;7.47;6.63;;;;;;;20.66;100.00;151220.13;4949214;28;20230;-53
2023/08/21 02:25:14;;;;;;;10.70;6.93;;;;;;;20.60;100.00;151206.34;4963714;28;20234;-56
2023/08/21 02:27:41;;;;;;;10.50;6.97;;;;;;;20.62;100.00;151210.09;4967413;28;20585;-56
2023/08/21 02:30:08;;;;;;;11.67;6.93;;;;;;;20.55;100.00;151192.53;4949816;28;20216;-55
2023/08/21 02:32:38;;;;;;;9.60;6.70;;;;;;;20.51;100.00;151183.78;4969456;28;20230;-55
2023/08/21 02:35:05;;;;;;;9.90;7.13;;;;;;;20.51;100.00;151183.78;4952746;28;20324;-56
2023/08/21 02:37:32;;;;;;;10.20;7.10;;;;;;;20.53;100.00;151187.53;4937683;28;20670;-53
2023/08/21 02:40:05;;;;;;;13.23;7.07;;;;;;;20.48;100.00;151176.28;4941434;28;20222;-55
2023/08/21 02:42:31;;;;;;;8.93;6.60;;;;;;;20.46;100.00;151171.25;4961639;28;20260;-56
2023/08/21 02:45:08;;;;;;;14.43;7.30;;;;;;;20.44;100.00;151167.47;4952391;28;20222;-56
2023/08/21 02:47:36;;;;;;;9.03;7.37;;;;;;;20.55;100.00;151192.53;4963519;28;20254;-56
2023/08/21 02:50:04;;;;;;;12.97;7.93;;;;;;;20.54;100.00;151190.03;4966519;28;20236;-55
2023/08/21 02:52:32;;;;;;;11.03;7.37;;;;;;;20.50;100.00;151182.53;4963432;28;20270;-56
2023/08/21 02:55:06;;;;;;;10.40;7.03;;;;;;;20.46;100.00;151171.25;4965681;28;20781;-56
2023/08/21 02:57:32;;;;;;;11.60;7.33;;;;;;;20.45;100.00;151170.00;4946053;28;20257;-55
2023/08/21 03:00:05;;;;;;;9.87;7.83;;;;;;;20.41;100.00;151158.72;4948145;28;20223;-56
2023/08/21 03:05:15;;;;;;;11.07;8.57;;;;;;;20.42;100.00;151162.47;5094402;22;20653;-54
2023/08/21 03:07:42;;;;;;;11.03;8.43;;;;;;;20.39;100.00;151154.94;5013135;28;20230;-56
2023/08/21 03:10:10;;;;;;;14.13;8.30;;;;;;;20.36;100.00;151147.44;5003437;28;20231;-55
2023/08/21 03:12:36;;;;;;;10.93;7.90;;;;;;;20.41;100.00;151158.72;5014704;28;20244;-56
2023/08/21 03:15:04;;;;;;;10.17;7.57;;;;;;;20.38;100.00;151152.44;4997707;28;20238;-56
2023/08/21 03:17:31;;;;;;;9.07;7.90;;;;;;;20.32;100.00;151137.41;4988763;28;20270;-55
2023/08/21 03:20:01;;;;;;;9.07;7.40;;;;;;;20.27;100.00;151126.16;4993085;28;20228;-55
2023/08/21 03:22:29;;;;;;;11.53;8.13;;;;;;;20.24;100.00;151118.63;4990771;28;20228;-55
2023/08/21 03:24:55;;;;;;;10.13;8.27;;;;;;;20.26;100.00;151122.38;5009079;28;20232;-55
2023/08/21 03:27:23;;;;;;;10.97;8.07;;;;;;;20.21;100.00;151112.34;4991169;28;20258;-55
2023/08/21 03:29:49;;;;;;;13.40;8.10;;;;;;;20.20;100.00;151108.63;4992951;28;20314;-53
2023/08/21 03:32:16;;;;;;;11.37;8.47;;;;;;;20.17;100.00;151102.31;5240947;23;20227;-56
2023/08/21 03:34:43;;;;;;;11.93;8.70;;;;;;;20.15;100.00;151097.31;5003792;28;20229;-55
2023/08/21 03:37:11;;;;;;;10.90;8.20;;;;;;;20.12;100.00;151088.56;5004638;28;20283;-52
2023/08/21 03:39:39;;;;;;;11.63;7.77;;;;;;;20.13;100.00;151092.34;5000656;28;20688;-54
2023/08/21 03:42:09;;;;;;;10.30;8.10;;;;;;;20.12;100.00;151088.56;4987238;28;20250;-56
2023/08/21 03:44:35;;;;;;;12.80;8.67;;;;;;;20.11;100.00;151087.34;4985318;28;20229;-54
2023/08/21 03:47:02;;;;;;;15.10;8.80;;;;;;;20.11;100.00;151086.06;5003311;28;20224;-53
2023/08/21 03:49:36;;;;;;;10.60;8.73;;;;;;;20.09;100.00;151082.34;4990194;28;20234;-56
2023/08/21 03:52:04;;;;;;;10.37;8.37;;;;;;;20.04;100.00;151071.03;4978456;28;20295;-54
2023/08/21 03:54:30;;;;;;;14.60;8.17;;;;;;;20.05;100.00;151072.31;4992341;28;20234;-56
2023/08/21 03:56:58;;;;;;;12.40;8.77;;;;;;;20.03;100.00;151067.28;4989926;28;20587;-56
2023/08/21 03:59:27;;;;;;;15.87;9.03;;;;;;;20.02;100.00;151064.78;4983356;28;20246;-56
2023/08/21 04:01:53;;;;;;;14.10;9.70;;;;;;;20.01;100.00;151063.50;5003249;28;20241;-55
2023/08/21 04:04:21;;;;;;;12.30;9.63;;;;;;;20.02;100.00;151064.78;4985002;28;21206;-54
2023/08/21 04:06:48;;;;;;;13.30;8.93;;;;;;;20.00;100.00;151059.78;5003532;28;20238;-55
2023/08/21 04:09:15;;;;;;;12.43;9.30;;;;;;;19.99;100.00;151058.50;4993250;28;20611;-54
2023/08/21 04:11:42;;;;;;;14.37;8.90;;;;;;;19.97;100.00;151052.25;4975388;28;20238;-56
2023/08/21 04:14:10;;;;;;;10.47;9.17;;;;;;;19.97;100.00;151052.25;5008493;28;20242;-55
2023/08/21 04:16:36;;;;;;;11.60;8.87;;;;;;;19.98;100.00;151056.00;4988333;28;20237;-55
2023/08/21 04:19:03;;;;;;;13.73;9.27;;;;;;;19.96;100.00;151051.00;5007631;28;20232;-55
2023/08/21 04:21:30;;;;;;;9.67;7.93;;;;;;;19.99;100.00;151058.50;4992764;28;20321;-56
2023/08/21 04:23:57;;;;;;;11.83;9.23;;;;;;;20.01;100.00;151062.28;4988907;28;21000;-56
2023/08/21 04:26:23;;;;;;;11.73;8.40;;;;;;;20.01;100.00;151062.28;4975699;28;20229;-56
2023/08/21 04:28:50;;;;;;;10.63;8.67;;;;;;;20.03;100.00;151067.28;4993705;28;20568;-53
2023/08/21 04:31:18;;;;;;;14.77;8.77;;;;;;;20.00;100.00;151061.00;4988916;28;20237;-54
2023/08/21 04:33:48;;;;;;;13.27;7.60;;;;;;;19.98;100.00;151056.00;4976192;28;20245;-55
2023/08/21 04:36:16;;;;;;;11.87;7.50;;;;;;;19.96;100.00;151049.75;4988971;28;20227;-54
2023/08/21 04:38:43;;;;;;;9.13;7.23;;;;;;;19.98;100.00;151054.78;4991505;28;20234;-55
2023/08/21 04:41:10;;;;;;;11.00;7.67;;;;;;;20.00;100.00;151061.00;4975622;28;20565;-55
2023/08/21 04:43:41;;;;;;;12.40;7.67;;;;;;;20.05;100.00;151072.31;4980108;28;20228;-54
2023/08/21 04:46:09;;;;;;;13.20;7.97;;;;;;;20.06;100.00;151076.03;4999543;28;20222;-55
2023/08/21 04:48:39;;;;;;;11.40;8.50;;;;;;;20.21;100.00;151111.13;5011275;28;20245;-55
2023/08/21 04:51:06;;;;;;;11.40;7.07;;;;;;;20.29;100.00;151129.88;4992933;28;20232;-55
2023/08/21 04:53:33;;;;;;;10.57;7.30;;;;;;;20.25;100.00;151119.88;5005632;28;20249;-55
2023/08/21 04:56:00;;;;;;;11.67;7.90;;;;;;;20.27;100.00;151124.88;4987576;28;20590;-54
2023/08/21 04:58:27;;;;;;;10.97;7.53;;;;;;;20.30;100.00;151132.41;4979775;28;20571;-56
2023/08/21 05:00:55;;;;;;;10.90;8.03;;;;;;;20.33;100.00;151139.91;4993977;28;20639;-53
2023/08/21 05:03:22;;;;;;;12.67;7.83;;;;;;;20.39;100.00;151153.72;4978590;28;20232;-55
2023/08/21 05:05:54;;;;;;;11.53;7.70;;;;;;;20.42;100.00;151162.47;4982185;28;20226;-55
2023/08/21 05:08:21;;;;;;;11.20;7.37;;;;;;;20.41;100.00;151158.72;5005056;28;20254;-53
2023/08/21 05:10:48;;;;;;;10.10;8.37;;;;;;;20.46;100.00;151171.25;4980228;28;20294;-55
2023/08/21 05:13:17;;;;;;;13.73;8.03;;;;;;;20.49;100.00;151180.00;5005259;28;20318;-53
2023/08/21 05:15:44;;;;;;;10.00;7.47;;;;;;;20.53;100.00;151188.81;5001413;28;20235;-54
2023/08/21 05:18:10;;;;;;;8.60;7.13;;;;;;;20.56;100.00;151195.06;4985025;28;20238;-54
2023/08/21 05:20:37;;;;;;;13.43;7.43;;;;;;;20.54;100.00;151191.31;4987962;28;20479;-53
2023/08/21 05:23:05;;;;;;;9.13;7.70;;;;;;;20.62;100.00;151211.38;4987269;28;20251;-56
2023/08/21 05:25:33;;;;;;;11.57;7.83;;;;;;;20.63;100.00;151212.59;4976629;28;20354;-54
2023/08/21 05:28:00;;;;;;;12.43;7.67;;;;;;;20.63;100.00;151213.88;5007917;28;20234;-52
2023/08/21 05:30:26;;;;;;;10.73;8.03;;;;;;;20.61;100.00;151208.84;4983885;28;20217;-56
2023/08/21 05:32:53;;;;;;;12.37;7.70;;;;;;;20.71;100.00;151231.38;4990824;28;20234;-54
2023/08/21 05:35:20;;;;;;;13.73;7.60;;;;;;;20.74;100.00;151238.88;4977746;28;20311;-56
2023/08/21 05:37:46;;;;;;;9.23;7.23;;;;;;;20.77;100.00;151247.72;4991262;28;20228;-55
2023/08/21 05:40:15;;;;;;;10.83;7.67;;;;;;;20.81;100.00;151256.47;4993446;28;20229;-54
2023/08/21 05:42:41;;;;;;;9.10;7.30;;;;;;;20.86;100.00;151267.78;4992681;28;20639;-54
2023/08/21 05:45:09;;;;;;;11.90;7.17;;;;;;;20.92;100.00;151284.06;4996249;28;20242;-53
2023/08/21 05:47:36;;;;;;;11.13;8.40;;;;;;;20.97;100.00;151294.09;4996807;28;21351;-55
2023/08/21 05:50:05;;;;;;;11.90;7.53;;;;;;;21.04;100.00;151312.91;4997766;28;20236;-54
2023/08/21 05:52:32;;;;;;;11.37;7.67;;;;;;;21.07;100.00;151319.16;4993596;28;20236;-54
2023/08/21 05:55:05;;;;;;;10.47;7.93;;;;;;;21.12;100.00;151330.47;5007150;28;20299;-54
2023/08/21 05:57:33;;;;;;;11.53;7.53;;;;;;;21.16;100.00;151340.47;4972629;28;20241;-55
2023/08/21 06:00:08;;;;;;;10.53;7.43;;;;;;;21.14;100.00;151336.69;5007726;28;20224;-54
2023/08/21 06:02:42;;;;;;;9.37;7.30;;;;;;;21.16;100.00;151340.47;5005972;28;20236;-55
2023/08/21 06:05:12;;;;;;;12.30;7.93;;;;;;;21.21;100.00;151352.97;4989400;28;20246;-55
2023/08/21 06:07:40;;;;;;;13.37;7.90;;;;;;;21.26;100.00;151364.28;5011035;28;20242;-55
2023/08/21 06:10:08;;;;;;;14.73;7.50;;;;;;;21.28;100.00;151370.53;5008747;28;20248;-53
2023/08/21 06:12:36;;;;;;;11.27;7.70;;;;;;;21.37;100.00;151391.88;4989733;28;20236;-53
2023/08/21 06:15:06;;;;;;;10.63;7.80;;;;;;;21.39;100.00;151396.88;4977421;28;20249;-56
2023/08/21 06:17:34;;;;;;;8.10;7.30;;;;;;;21.44;100.00;151408.13;4978154;28;20313;-56
2023/08/21 06:20:05;;;;;;;10.33;7.23;;;;;;;21.51;100.00;151426.97;5004913;28;20806;-54
2023/08/21 06:22:32;;;;;;;9.93;7.07;;;;;;;21.58;100.00;151443.25;4999169;28;20685;-56
2023/08/21 06:25:05;;;;;;;10.33;7.57;;;;;;;21.68;100.00;151468.38;4994497;28;20220;-56
2023/08/21 06:27:31;;;;;;;10.60;7.67;;;;;;;21.72;100.00;151475.88;4982572;28;20249;-53
2023/08/21 06:30:07;;;;;;;10.00;7.60;;;;;;;21.77;100.00;151488.44;4978933;28;20220;-55
2023/08/21 06:32:33;;;;;;;8.87;7.07;;;;;;;21.87;100.00;151513.50;4986557;28;20235;-54
2023/08/21 06:35:05;;;;;;;8.43;7.27;;;;;;;21.99;100.00;151542.31;5005246;28;20253;-56
2023/08/21 06:37:31;;;;;;;9.63;7.03;;;;;;;22.12;100.00;151574.94;4974907;28;20238;-55
2023/08/21 06:40:01;;;;;;;10.83;7.53;;;;;;;22.19;100.00;151591.28;5006520;28;20248;-53
2023/08/21 06:42:28;;;;;;;8.90;7.63;;;;;;;22.23;100.00;151601.31;4991717;28;20242;-54
2023/08/21 06:44:56;;;;;;;12.93;9.57;;;;;;;22.43;100.00;151648.91;4988182;28;20608;-53
2023/08/21 06:47:24;;;;;;;11.63;7.40;;;;;;;22.54;100.00;151676.56;4990322;28;20318;-55
2023/08/21 06:49:50;;;;;;;14.40;9.83;;;;;;;22.59;100.00;151686.59;5005344;28;20590;-51
2023/08/21 06:52:17;;;;;;;15.63;9.83;;;;;;;22.72;100.00;151718.00;5004784;28;20857;-54
2023/08/21 06:54:44;;;;;;;14.97;9.70;;;;;;;22.80;100.00;151738.00;5006992;28;20227;-54
2023/08/21 06:57:10;;;;;;;11.57;9.30;;;;;;;22.89;100.00;151759.38;5008722;28;20230;-56
2023/08/21 06:59:38;;;;;;;12.83;9.07;;;;;;;22.91;100.00;151764.38;5006759;28;20233;-57
2023/08/21 07:02:04;;;;;;;11.97;9.83;;;;;;;23.02;100.00;151792.00;5003737;28;20297;-56
2023/08/21 07:04:33;;;;;;;13.37;9.90;;;;;;;23.12;100.00;151817.09;5003935;28;20593;-53
2023/08/21 07:07:00;;;;;;;12.47;9.50;;;;;;;23.09;100.00;151809.56;5001780;28;20226;-53
2023/08/21 07:09:27;;;;;;;11.67;9.50;;;;;;;23.10;100.00;151812.06;5005824;28;20241;-55
2023/08/21 07:11:53;;;;;;;12.27;10.20;;;;;;;23.21;100.00;151837.16;5004736;28;20735;-56
2023/08/21 07:14:20;;;;;;;13.97;11.37;;;;;;;23.35;100.00;151871.06;5002101;28;20777;-55
2023/08/21 07:16:47;;;;;;;18.93;11.20;;;;;;;23.42;100.00;151889.88;5007685;28;20245;-56
2023/08/21 07:19:13;;;;;;;15.80;10.40;;;;;;;23.62;100.00;151937.56;5005082;28;20616;-54
2023/08/21 07:21:41;;;;;;;16.17;11.53;;;;;;;23.57;100.00;151926.31;5005977;28;20227;-56
2023/08/21 07:24:08;;;;;;;11.93;9.10;;;;;;;23.71;100.00;151958.94;5000375;28;20701;-52
2023/08/21 07:26:35;;;;;;;12.37;9.57;;;;;;;23.79;100.00;151979.03;5003433;28;20705;-55
2023/08/21 07:29:03;;;;;;;14.50;10.60;;;;;;;23.88;100.00;152001.56;5003432;28;20285;-53
2023/08/21 07:31:30;;;;;;;13.53;10.20;;;;;;;23.90;100.00;152005.34;5002466;28;20231;-53
2023/08/21 07:33:57;;;;;;;16.83;10.60;;;;;;;24.03;100.00;152036.78;5001241;28;20702;-53
2023/08/21 07:36:23;;;;;;;13.90;11.80;;;;;;;24.12;100.00;152058.13;5004231;28;20238;-53
2023/08/21 07:38:51;;;;;;;13.13;11.43;;;;;;;24.05;100.00;152041.78;5007424;28;20586;-52
2023/08/21 07:41:18;;;;;;;20.20;11.33;;;;;;;24.13;100.00;152060.66;4998777;28;20228;-52
2023/08/21 07:43:45;;;;;;;14.90;10.87;;;;;;;24.28;100.00;152098.31;5002150;28;20232;-54
2023/08/21 07:46:15;;;;;;;17.17;11.60;;;;;;;24.27;100.00;152095.81;5002094;28;20702;-53
2023/08/21 07:48:43;;;;;;;15.33;13.07;;;;;;;24.17;100.00;152071.91;5006720;28;20729;-55
2023/08/21 07:51:10;;;;;;;13.07;11.30;;;;;;;24.36;100.00;152117.13;5007824;28;20236;-52
2023/08/21 07:53:37;;;;;;;16.87;11.77;;;;;;;24.48;100.00;152145.97;5005806;28;20225;-52
2023/08/21 07:56:05;;;;;;;15.30;11.87;;;;;;;24.60;99.63;152176.13;5008823;28;20223;-55
2023/08/21 07:58:33;;;;;;;14.43;11.10;;;;;;;24.56;99.06;152166.06;5004372;28;20763;-55
2023/08/21 08:01:00;;;;;;;16.10;12.50;;;;;;;24.54;98.54;152159.81;5008979;28;20280;-54
2023/08/21 08:03:26;;;;;;;15.63;11.80;;;;;;;24.62;97.56;152181.16;4998804;28;20231;-54
2023/08/21 08:05:53;;;;;;;13.83;11.60;;;;;;;24.69;97.76;152197.50;5007104;28;20684;-52
2023/08/21 08:08:20;;;;;;;17.80;11.17;;;;;;;24.72;97.15;152205.06;5003720;28;20216;-55
2023/08/21 08:10:46;;;;;;;12.13;10.83;;;;;;;24.82;96.78;152228.91;5006546;28;20241;-53
2023/08/21 08:13:14;;;;;;;14.87;11.97;;;;;;;24.88;95.11;152244.00;5004060;28;20224;-54
2023/08/21 08:15:41;;;;;;;15.77;11.40;;;;;;;25.02;94.35;152277.88;5007308;28;20249;-55
2023/08/21 08:18:12;;;;;;;15.07;11.07;;;;;;;25.01;93.76;152274.13;5004522;28;20576;-52
2023/08/21 08:20:39;;;;;;;13.60;11.13;;;;;;;25.10;95.21;152296.75;5007762;28;20239;-56
2023/08/21 08:23:05;;;;;;;14.93;11.70;;;;;;;25.17;94.82;152313.03;5008044;28;20234;-54
2023/08/21 08:25:33;;;;;;;16.00;11.40;;;;;;;25.23;94.04;152326.88;5007841;28;20701;-55
2023/08/21 08:27:59;;;;;;;18.20;12.33;;;;;;;25.22;93.93;152325.63;5010933;28;20225;-55
2023/08/21 08:30:27;;;;;;;12.97;11.60;;;;;;;25.31;92.82;152348.22;5005314;28;20231;-55
2023/08/21 08:32:54;;;;;;;16.43;11.60;;;;;;;25.27;93.24;152336.94;5013050;28;20248;-54
2023/08/21 08:35:21;;;;;;;14.00;11.53;;;;;;;25.30;93.83;152345.72;5008498;28;20217;-55
2023/08/21 08:37:47;;;;;;;12.93;11.33;;;;;;;25.31;94.27;152348.22;5011842;28;20580;-56
2023/08/21 08:40:14;;;;;;;18.87;11.73;;;;;;;25.35;93.62;152358.28;4988632;28;20228;-56
2023/08/21 08:42:41;;;;;;;16.77;12.67;;;;;;;25.44;92.81;152379.66;5003427;28;20236;-56
2023/08/21 08:45:08;;;;;;;15.97;12.03;;;;;;;25.44;94.52;152378.38;5003222;28;20227;-53
2023/08/21 08:47:36;;;;;;;17.77;11.90;;;;;;;25.48;95.06;152388.47;5000367;28;20233;-55
2023/08/21 08:50:05;;;;;;;13.73;11.10;;;;;;;25.67;90.40;152433.72;5010597;28;20220;-56
2023/08/21 08:52:35;;;;;;;15.57;10.67;;;;;;;25.68;90.24;152436.22;5008987;28;20323;-56
2023/08/21 08:55:06;;;;;;;13.17;11.10;;;;;;;25.73;89.96;152448.78;5007792;28;20301;-55
2023/08/21 08:57:33;;;;;;;11.70;10.33;;;;;;;25.87;90.60;152483.97;5003896;28;20237;-55
2023/08/21 09:00:05;;;;;;;12.20;10.93;;;;;;;25.96;87.61;152505.31;5009537;28;20241;-57
2023/08/21 09:02:31;;;;;;;19.17;11.53;;;;;;;25.97;87.34;152506.59;5006121;28;20230;-57
2023/08/21 09:05:06;;;;;;;15.53;11.07;;;;;;;25.98;83.28;152510.34;5011058;28;20748;-56
2023/08/21 09:07:33;;;;;;;14.90;10.33;;;;;;;25.90;85.06;152490.22;5009117;28;20734;-54
2023/08/21 09:10:04;;;;;;;12.90;9.70;;;;;;;26.00;83.77;152515.38;5008803;28;20233;-55
2023/08/21 09:12:33;;;;;;;16.73;11.00;;;;;;;25.99;83.48;152512.84;5007289;28;20239;-54
2023/08/21 09:15:07;;;;;;;13.97;10.43;;;;;;;26.01;85.90;152517.88;5005027;28;20228;-55
2023/08/21 09:17:34;;;;;;;13.37;10.23;;;;;;;26.14;85.47;152548.09;5007007;28;20713;-55
2023/08/21 09:20:07;;;;;;;15.50;10.37;;;;;;;26.18;82.78;152559.38;5012707;28;20225;-52
2023/08/21 09:22:34;;;;;;;10.33;9.33;;;;;;;26.43;81.60;152618.47;5007577;28;20264;-54
2023/08/21 09:25:07;;;;;;;14.97;10.60;;;;;;;26.31;79.52;152590.81;5002498;28;20255;-56
2023/08/21 09:27:34;;;;;;;11.40;10.20;;;;;;;26.37;82.47;152605.91;4992728;28;20242;-56
2023/08/21 09:30:05;;;;;;;14.40;9.97;;;;;;;26.53;80.92;152644.84;5014651;28;20238;-53
2023/08/21 09:32:32;;;;;;;13.10;10.60;;;;;;;26.63;81.89;152667.47;5009940;28;20242;-54
2023/08/21 09:35:06;;;;;;;13.03;10.13;;;;;;;26.79;82.91;152707.69;5005608;28;20249;-55
2023/08/21 09:37:33;;;;;;;15.30;10.83;;;;;;;26.96;80.17;152747.97;4991863;28;20244;-53
2023/08/21 09:40:11;;;;;;;16.40;12.10;;;;;;;26.98;79.64;152751.72;5008252;28;20241;-56
2023/08/21 09:42:39;;;;;;;18.25;11.52;;;;;;;27.08;80.07;152778.09;5007940;28;20229;-57
2023/08/21 09:45:07;;;;;;;17.03;12.70;;;;;;;27.19;79.68;152803.25;5008911;28;20239;-57
2023/08/21 09:47:34;;;;;;;14.43;11.70;;;;;;;27.26;80.13;152820.84;5001948;28;20240;-57
2023/08/21 09:50:06;;;;;;;16.63;12.77;;;;;;;27.18;78.86;152802.03;5012842;28;20250;-56
2023/08/21 09:52:39;;;;;;;17.13;13.77;;;;;;;27.16;79.30;152797.00;5008469;28;20238;-53
2023/08/21 09:55:07;;;;;;;18.47;12.90;;;;;;;27.26;79.60;152822.13;5004511;28;20222;-54
2023/08/21 09:57:34;;;;;;;17.37;13.40;;;;;;;27.24;81.42;152815.84;4999746;28;20694;-54
2023/08/21 10:00:15;;;;;;;16.57;12.57;;;;;;;27.31;80.58;152832.19;5002491;28;20261;-56
2023/08/21 10:02:45;;;;;;;15.77;12.53;;;;;;;27.45;79.04;152866.13;5003392;28;20247;-56
2023/08/21 10:05:14;;;;;;;19.57;13.13;;;;;;;27.46;81.08;152869.94;4990747;28;20236;-53
2023/08/21 10:07:42;;;;;;;17.93;13.53;;;;;;;27.35;79.00;152843.50;4992248;28;20265;-54
2023/08/21 10:10:10;;;;;;;16.63;12.90;;;;;;;27.60;78.89;152903.91;4996877;28;20260;-56
2023/08/21 10:12:36;;;;;;;15.70;12.50;;;;;;;27.72;78.70;152931.56;4991056;28;20254;-54
2023/08/21 10:15:06;;;;;;;17.53;12.97;;;;;;;27.92;78.43;152980.59;4997901;28;20231;-56
2023/08/21 10:17:33;;;;;;;16.97;12.47;;;;;;;27.87;78.36;152968.03;4992285;28;20701;-56
2023/08/21 10:20:07;;;;;;;13.87;11.87;;;;;;;28.01;76.59;153002.00;4997502;28;20237;-56
2023/08/21 10:22:44;;;;;;;15.27;11.30;;;;;;;28.05;75.12;153013.31;4992273;28;20355;-54
2023/08/21 10:25:20;;;;;;;13.03;10.27;;;;;;;28.06;74.52;153014.59;4993625;28;20267;-56
2023/08/21 10:27:47;;;;;;;14.77;10.50;;;;;;;28.04;76.37;153009.56;4994021;28;20235;-56
2023/08/21 10:30:15;;;;;;;12.37;9.93;;;;;;;28.01;76.22;153003.25;4995503;28;20263;-57
2023/08/21 10:32:46;;;;;;;15.50;10.47;;;;;;;28.05;75.86;153012.06;4993181;28;20239;-57
2023/08/21 10:35:15;;;;;;;11.90;9.10;;;;;;;28.21;73.84;153051.09;4992668;28;20288;-56
2023/08/21 10:38:08;;;;;;;12.90;9.63;;;;;;;28.24;72.91;153058.66;4997487;28;20243;-57
2023/08/21 10:40:35;;;;;;;9.97;8.47;;;;;;;28.35;72.51;153086.34;4993287;28;20239;-55
2023/08/21 10:43:02;;;;;;;13.25;8.70;;;;;;;28.35;72.89;153085.06;4994242;28;20250;-54
2023/08/21 10:45:29;;;;;;;11.85;8.48;;;;;;;28.29;72.61;153071.22;4994440;28;20322;-57
2023/08/21 10:47:58;;;;;;;12.02;8.48;;;;;;;28.41;74.18;153101.44;4995510;28;20243;-57
2023/08/21 10:50:24;;;;;;;12.93;8.93;;;;;;;28.20;74.06;153049.81;4990866;28;20238;-56
2023/08/21 10:52:52;;;;;;;11.97;8.73;;;;;;;28.51;72.08;153124.06;4998728;28;20242;-57
2023/08/21 10:55:21;;;;;;;13.85;9.00;;;;;;;28.65;71.05;153158.03;4990152;28;20230;-57
2023/08/21 10:57:49;;;;;;;11.38;8.23;;;;;;;28.57;71.94;153139.19;4999097;28;20848;-56
2023/08/21 11:00:17;;;;;;;10.03;8.33;;;;;;;28.47;72.48;153114.00;4991699;28;20222;-57
2023/08/21 11:02:45;;;;;;;11.17;8.40;;;;;;;28.57;72.91;153139.19;4996225;28;20740;-56
2023/08/21 11:05:13;;;;;;;12.13;8.80;;;;;;;28.48;71.74;153117.75;4989190;28;20243;-57
2023/08/21 11:07:41;;;;;;;16.05;9.18;;;;;;;28.76;71.76;153184.41;4993875;28;20782;-54
2023/08/21 11:10:09;;;;;;;9.30;8.20;;;;;;;28.96;69.84;153234.81;4993849;28;20237;-55
2023/08/21 11:12:37;;;;;;;14.33;9.17;;;;;;;28.86;70.76;153209.63;4992095;28;20330;-56
2023/08/21 11:15:05;;;;;;;11.10;8.73;;;;;;;29.08;68.94;153263.78;4996142;28;20706;-57
2023/08/21 11:17:31;;;;;;;13.18;8.63;;;;;;;29.17;67.46;153285.16;4990057;28;20262;-53
2023/08/21 11:20:05;;;;;;;14.60;8.55;;;;;;;29.27;67.44;153309.03;4977522;28;20239;-56